createdAt,value
2023-01-31T00:02:42.792Z,13.33
2023-01-31T00:06:51.072Z,11.13
2023-01-31T00:10:54.295Z,13.37
2023-01-31T00:14:57.557Z,12.80
2023-01-31T00:19:00.694Z,12.83
2023-01-31T00:23:05.192Z,12.43
2023-01-31T00:27:08.748Z,17.17
2023-01-31T00:31:12.579Z,10.93
2023-01-31T00:35:15.765Z,10.80
2023-01-31T00:39:22.238Z,12.97
2023-01-31T00:43:25.412Z,14.63
2023-01-31T00:47:29.312Z,12.03
2023-01-31T00:51:33.226Z,13.37
2023-01-31T00:55:39.059Z,10.17
2023-01-31T00:59:45.825Z,16.20
2023-01-31T01:03:59.719Z,14.13
2023-01-31T01:08:02.840Z,11.30
2023-01-31T01:12:07.460Z,15.20
2023-01-31T01:16:14.181Z,15.53
2023-01-31T01:20:18.145Z,20.90
2023-01-31T01:24:21.091Z,19.03
2023-01-31T01:28:28.662Z,17.33
2023-01-31T01:32:33.953Z,9.83
2023-01-31T01:36:37.740Z,18.50
2023-01-31T01:40:42.383Z,12.93
2023-01-31T01:44:50.440Z,14.57
2023-01-31T01:48:56.844Z,17.67
2023-01-31T01:53:04.478Z,15.40
2023-01-31T01:57:08.692Z,19.37
2023-01-31T02:01:36.207Z,14.80
2023-01-31T02:05:51.655Z,17.40
2023-01-31T02:10:01.153Z,15.93
2023-01-31T02:14:08.454Z,21.47
2023-01-31T02:18:13.583Z,11.63
2023-01-31T02:22:23.954Z,18.23
2023-01-31T02:26:54.373Z,12.93
2023-01-31T02:31:33.232Z,11.93
2023-01-31T02:35:50.893Z,14.67
2023-01-31T02:40:02.825Z,19.20
2023-01-31T02:44:36.745Z,9.83
2023-01-31T02:48:52.805Z,18.83
2023-01-31T02:53:03.828Z,9.73
2023-01-31T02:57:09.164Z,13.83
2023-01-31T03:01:19.514Z,11.57
2023-01-31T03:05:22.859Z,17.70
2023-01-31T03:09:37.979Z,16.03
2023-01-31T03:13:54.436Z,14.13
2023-01-31T03:18:03.085Z,12.33
2023-01-31T03:22:15.125Z,8.33
2023-01-31T03:26:21.027Z,17.30
2023-01-31T03:30:32.717Z,13.20
2023-01-31T03:34:36.715Z,12.47
2023-01-31T03:38:50.997Z,10.50
2023-01-31T03:43:01.996Z,10.80
2023-01-31T03:47:11.927Z,13.73
2023-01-31T03:51:20.893Z,14.17
2023-01-31T03:55:32.463Z,9.40
2023-01-31T03:59:40.678Z,14.07
2023-01-31T04:03:47.296Z,9.40
2023-01-31T04:07:50.686Z,11.90
2023-01-31T04:12:01.105Z,11.37
2023-01-31T04:16:06.087Z,18.50
2023-01-31T04:20:10.921Z,10.37
2023-01-31T04:24:14.008Z,13.93
2023-01-31T04:28:18.211Z,14.27
2023-01-31T04:32:22.621Z,13.20
2023-01-31T04:36:25.847Z,17.63
2023-01-31T04:40:28.793Z,12.50
2023-01-31T04:44:31.919Z,14.10
2023-01-31T04:48:36.721Z,15.33
2023-01-31T04:52:40.524Z,16.30
2023-01-31T04:56:44.400Z,10.67
2023-01-31T05:00:48.401Z,19.67
2023-01-31T05:04:53.339Z,17.80
2023-01-31T05:08:56.135Z,13.90
2023-01-31T05:12:59.228Z,21.33
2023-01-31T05:17:02.658Z,14.13
2023-01-31T05:21:08.608Z,23.73
2023-01-31T05:25:11.835Z,17.03
2023-01-31T05:29:14.930Z,19.97
2023-01-31T05:33:20.637Z,19.77
2023-01-31T05:37:25.246Z,24.63
2023-01-31T05:41:28.122Z,18.53
2023-01-31T05:45:36.731Z,24.97
2023-01-31T05:49:40.070Z,18.33
2023-01-31T05:53:44.305Z,20.13
2023-01-31T05:57:47.981Z,20.47
2023-01-31T06:01:51.125Z,18.20
2023-01-31T06:05:54.378Z,23.83
2023-01-31T06:10:00.981Z,23.23
2023-01-31T06:14:04.311Z,20.93
2023-01-31T06:18:07.391Z,25.63
2023-01-31T06:22:10.697Z,21.10
2023-01-31T06:26:15.708Z,18.87
2023-01-31T06:30:19.073Z,20.90
2023-01-31T06:34:22.706Z,24.47
2023-01-31T06:38:25.718Z,19.00
2023-01-31T06:42:30.553Z,27.03
2023-01-31T06:46:33.885Z,23.70
2023-01-31T06:50:36.924Z,21.00
2023-01-31T06:54:40.174Z,22.77
2023-01-31T06:58:44.526Z,25.93
2023-01-31T07:02:47.901Z,27.53
2023-01-31T07:06:51.000Z,28.43
2023-01-31T07:10:54.002Z,24.93
2023-01-31T07:14:58.315Z,34.13
2023-01-31T07:19:01.843Z,28.90
2023-01-31T07:23:04.821Z,24.17
2023-01-31T07:27:08.196Z,27.50
2023-01-31T07:31:14.989Z,29.77
2023-01-31T07:35:18.989Z,25.00
2023-01-31T07:39:23.649Z,30.20
2023-01-31T07:43:26.509Z,22.60
2023-01-31T07:47:31.252Z,35.70
2023-01-31T07:51:35.862Z,26.67
2023-01-31T07:55:38.912Z,29.40
2023-01-31T07:59:41.903Z,30.53
2023-01-31T08:03:46.661Z,24.00
2023-01-31T08:08:09.735Z,31.53
2023-01-31T08:12:12.689Z,24.37
2023-01-31T08:16:15.721Z,26.37
2023-01-31T08:20:20.353Z,26.83
2023-01-31T08:24:23.250Z,20.87
2023-01-31T08:28:27.393Z,20.47
2023-01-31T08:32:30.836Z,23.00
2023-01-31T08:36:36.136Z,26.93
2023-01-31T08:40:39.210Z,22.63
2023-01-31T08:44:43.745Z,20.87
2023-01-31T08:48:46.705Z,21.97
2023-01-31T08:52:54.842Z,21.67
2023-01-31T08:56:57.633Z,25.37
2023-01-31T09:01:02.651Z,21.97
2023-01-31T09:05:08.263Z,15.90
2023-01-31T09:09:12.722Z,21.07
2023-01-31T09:13:15.764Z,22.20
2023-01-31T09:17:19.969Z,20.17
2023-01-31T09:21:24.193Z,23.27
2023-01-31T09:25:43.761Z,22.87
2023-01-31T09:29:48.616Z,21.77
2023-01-31T09:33:52.200Z,22.07
2023-01-31T09:37:56.161Z,22.13
2023-01-31T09:42:05.512Z,25.50
2023-01-31T09:46:14.535Z,22.13
2023-01-31T09:50:23.159Z,18.43
2023-01-31T09:54:30.821Z,20.50
2023-01-31T09:58:41.167Z,18.57
2023-01-31T10:03:14.790Z,23.97
2023-01-31T10:07:26.451Z,27.43
2023-01-31T10:11:36.573Z,23.60
2023-01-31T10:15:45.233Z,24.00
2023-01-31T10:19:54.158Z,17.30
2023-01-31T10:24:01.349Z,16.63
2023-01-31T10:28:11.409Z,21.03
2023-01-31T10:32:22.608Z,19.00
2023-01-31T10:36:30.398Z,20.30
2023-01-31T10:40:37.021Z,20.00
2023-01-31T10:44:48.217Z,22.17
2023-01-31T10:48:52.720Z,18.10
2023-01-31T10:53:15.697Z,18.20
2023-01-31T10:57:19.096Z,21.27
2023-01-31T11:01:22.306Z,17.17
2023-01-31T11:05:29.876Z,18.40
2023-01-31T11:09:37.476Z,15.40
2023-01-31T11:13:41.134Z,18.37
2023-01-31T11:17:45.550Z,16.77
2023-01-31T11:21:52.610Z,20.07
2023-01-31T11:25:57.653Z,23.80
2023-01-31T11:30:01.366Z,17.60
2023-01-31T11:34:14.348Z,22.37
2023-01-31T11:38:24.242Z,19.20
2023-01-31T11:42:28.261Z,15.73
2023-01-31T11:46:31.370Z,20.33
2023-01-31T11:50:37.522Z,20.07
2023-01-31T11:54:44.971Z,21.60
2023-01-31T11:58:50.829Z,20.87
2023-01-31T12:03:00.950Z,19.27
2023-01-31T12:07:06.878Z,25.70
2023-01-31T12:11:28.642Z,29.87
2023-01-31T12:15:32.784Z,22.50
2023-01-31T12:19:47.477Z,22.77
2023-01-31T12:24:03.742Z,26.10
2023-01-31T12:28:17.367Z,23.80
2023-01-31T12:32:33.114Z,27.00
2023-01-31T12:36:48.173Z,21.47
2023-01-31T12:41:01.738Z,23.50
2023-01-31T12:45:20.869Z,24.03
2023-01-31T12:49:43.790Z,24.93
2023-01-31T12:54:02.371Z,22.27
2023-01-31T12:58:23.000Z,24.23
2023-01-31T13:02:42.165Z,17.40
2023-01-31T13:06:49.895Z,23.97
2023-01-31T13:10:59.446Z,24.57
2023-01-31T13:15:06.398Z,20.73
2023-01-31T13:19:19.462Z,19.70
2023-01-31T13:23:29.876Z,22.00
2023-01-31T13:27:39.360Z,18.47
2023-01-31T13:31:47.982Z,19.20
2023-01-31T13:36:00.881Z,18.33
2023-01-31T13:40:16.417Z,18.33
2023-01-31T13:44:20.886Z,23.00
2023-01-31T13:48:30.771Z,19.53
2023-01-31T13:52:40.651Z,19.83
2023-01-31T13:56:43.952Z,18.67
2023-01-31T14:00:51.001Z,19.50
2023-01-31T14:04:53.960Z,15.10
2023-01-31T14:09:01.876Z,15.43
2023-01-31T14:13:37.613Z,17.63
2023-01-31T14:18:01.438Z,13.57
2023-01-31T14:22:16.285Z,14.90
2023-01-31T14:26:53.537Z,12.07
2023-01-31T14:30:57.228Z,15.87
2023-01-31T14:35:09.064Z,12.67
2023-01-31T14:39:54.242Z,9.70
2023-01-31T14:44:13.254Z,13.77
2023-01-31T14:48:24.957Z,15.83
2023-01-31T14:52:48.816Z,15.90
2023-01-31T14:57:21.567Z,11.10
2023-01-31T15:01:35.532Z,11.47
2023-01-31T15:05:47.360Z,16.10
2023-01-31T15:09:50.780Z,11.47
2023-01-31T15:13:55.380Z,12.17
2023-01-31T15:18:02.509Z,16.73
2023-01-31T15:22:08.432Z,12.20
2023-01-31T15:26:11.709Z,15.50
2023-01-31T15:30:20.295Z,11.80
2023-01-31T15:34:31.776Z,11.40
2023-01-31T15:38:39.163Z,13.30
2023-01-31T15:42:42.144Z,12.90
2023-01-31T15:46:47.210Z,13.03
2023-01-31T15:50:54.014Z,13.17
2023-01-31T15:54:59.013Z,8.67
2023-01-31T15:59:15.134Z,10.90
2023-01-31T16:03:23.013Z,10.77
2023-01-31T16:07:31.385Z,13.43
2023-01-31T16:11:38.498Z,11.13
2023-01-31T16:15:42.051Z,8.77
2023-01-31T16:19:49.833Z,9.23
2023-01-31T16:24:00.916Z,11.50
2023-01-31T16:28:06.615Z,9.90
2023-01-31T16:32:20.601Z,11.90
2023-01-31T16:36:26.168Z,10.30
2023-01-31T16:40:35.542Z,8.97
2023-01-31T16:44:43.716Z,12.17
2023-01-31T16:49:02.838Z,12.40
2023-01-31T16:53:17.925Z,12.17
2023-01-31T16:57:38.299Z,12.83
2023-01-31T17:01:41.996Z,12.47
2023-01-31T17:05:47.601Z,10.63
2023-01-31T17:09:55.526Z,8.33
2023-01-31T17:13:59.978Z,14.43
2023-01-31T17:18:02.823Z,9.57
2023-01-31T17:22:06.089Z,12.77
2023-01-31T17:26:15.306Z,13.53
2023-01-31T17:30:22.103Z,13.70
2023-01-31T17:34:25.393Z,11.03
2023-01-31T17:38:28.238Z,17.23
2023-01-31T17:42:42.601Z,9.40
2023-01-31T17:46:47.036Z,11.90
2023-01-31T17:50:52.301Z,15.43
2023-01-31T17:54:56.791Z,14.70
2023-01-31T17:59:00.129Z,12.20
2023-01-31T18:03:04.421Z,11.00
2023-01-31T18:07:07.900Z,12.47
2023-01-31T18:11:14.914Z,14.63
2023-01-31T18:15:17.966Z,15.57
2023-01-31T18:19:22.598Z,17.13
2023-01-31T18:23:25.997Z,14.30
2023-01-31T18:27:29.070Z,11.37
2023-01-31T18:31:32.619Z,12.83
2023-01-31T18:35:41.165Z,11.77
2023-01-31T18:39:45.512Z,17.73
2023-01-31T18:43:49.361Z,14.33
2023-01-31T18:47:52.822Z,12.90
2023-01-31T18:51:59.169Z,11.90
2023-01-31T18:56:05.511Z,13.20
2023-01-31T19:00:10.668Z,14.37
2023-01-31T19:04:14.534Z,16.43
2023-01-31T19:08:27.814Z,15.20
2023-01-31T19:12:32.446Z,11.40
2023-01-31T19:16:39.838Z,11.80
2023-01-31T19:20:43.534Z,13.77
2023-01-31T19:24:48.569Z,13.07
2023-01-31T19:28:52.392Z,11.33
2023-01-31T19:32:55.722Z,12.47
2023-01-31T19:36:58.676Z,12.43
2023-01-31T19:41:08.450Z,13.37
2023-01-31T19:45:12.812Z,11.37
2023-01-31T19:49:25.203Z,18.87
2023-01-31T19:53:30.841Z,17.27
2023-01-31T19:57:37.994Z,12.23
2023-01-31T20:01:48.064Z,15.83
2023-01-31T20:06:06.505Z,11.57
2023-01-31T20:10:29.114Z,16.57
2023-01-31T20:14:38.560Z,16.30
2023-01-31T20:18:42.516Z,14.50
2023-01-31T20:22:45.954Z,12.20
2023-01-31T20:26:50.033Z,19.13
2023-01-31T20:30:54.956Z,14.60
2023-01-31T20:34:58.141Z,14.20
2023-01-31T20:39:01.990Z,12.30
2023-01-31T20:43:08.120Z,19.40
2023-01-31T20:47:12.809Z,17.33
2023-01-31T20:51:16.391Z,19.70
2023-01-31T20:55:19.281Z,17.90
2023-01-31T20:59:22.251Z,16.60
2023-01-31T21:03:27.383Z,16.93
2023-01-31T21:07:54.861Z,13.43
2023-01-31T21:11:57.859Z,13.50
2023-01-31T21:16:05.079Z,15.83
2023-01-31T21:20:11.157Z,16.47
2023-01-31T21:24:14.475Z,19.57
2023-01-31T21:28:17.624Z,15.23
2023-01-31T21:32:20.851Z,11.10
2023-01-31T21:36:26.691Z,17.00
2023-01-31T21:40:29.724Z,13.33
2023-01-31T21:44:32.624Z,16.23
2023-01-31T21:48:35.590Z,23.13
2023-01-31T21:52:42.067Z,18.63
2023-01-31T21:56:45.585Z,18.77
2023-01-31T22:00:48.924Z,24.60
2023-01-31T22:04:52.058Z,18.63
2023-01-31T22:08:59.278Z,16.80
2023-01-31T22:13:02.756Z,16.03
2023-01-31T22:17:05.795Z,15.30
2023-01-31T22:21:10.592Z,21.13
2023-01-31T22:25:16.036Z,18.07
2023-01-31T22:29:19.357Z,17.43
2023-01-31T22:33:22.443Z,19.83
2023-01-31T22:37:26.628Z,22.73
2023-01-31T22:41:32.722Z,15.87
2023-01-31T22:45:36.674Z,23.03
2023-01-31T22:49:39.580Z,23.13
2023-01-31T22:53:43.335Z,16.73
2023-01-31T22:57:48.834Z,18.97
2023-01-31T23:01:51.972Z,18.63
2023-01-31T23:05:56.053Z,11.40
2023-01-31T23:09:58.860Z,14.93
2023-01-31T23:14:04.026Z,18.67
2023-01-31T23:18:07.147Z,16.77
2023-01-31T23:22:10.879Z,19.63
2023-01-31T23:26:14.612Z,16.73
2023-01-31T23:30:20.680Z,15.40
2023-01-31T23:34:23.954Z,16.40
2023-01-31T23:38:26.994Z,13.43
2023-01-31T23:42:30.833Z,14.23
2023-01-31T23:46:35.951Z,14.43
2023-01-31T23:50:39.988Z,11.87
2023-01-31T23:54:42.904Z,22.97
2023-01-31T23:58:45.847Z,11.30
